Time;durP1;ratioP1;P1;durP2;ratioP2;P2;SDS_P1;SDS_P2;PMS_P1;PMS_P2;Temp;Humidity;BMP_temperature;BMP_pressure;BME280_temperature;BME280_humidity;BME280_pressure;Samples;Min_cycle;Max_cycle;Signal;HPM_P1;HPM_P2
2023/08/13 00:00:26;;;;;;;8.13;4.27;;;;;;;;;;4914819;29;20195;-72
2023/08/13 00:02:53;;;;;;;6.03;4.43;;;;;;;;;;4914032;29;20236;-72
2023/08/13 00:05:20;;;;;;;5.90;4.30;;;;;;;;;;4914789;29;20206;-72
2023/08/13 00:07:46;;;;;;;6.83;4.30;;;;;;;;;;4897890;29;20196;-71
2023/08/13 00:10:31;;;;;;;8.93;4.47;;;;;;;;;;4914597;29;20976;-71
2023/08/13 00:12:57;;;;;;;8.27;4.83;;;;;;;;;;4914581;29;20596;-73
2023/08/13 00:15:24;;;;;;;9.07;4.90;;;;;;;;;;4915179;29;20610;-71
2023/08/13 00:17:51;;;;;;;10.03;4.97;;;;;;;;;;4933656;29;21026;-72
2023/08/13 00:20:18;;;;;;;7.37;4.23;;;;;;;;;;4933481;29;20250;-72
2023/08/13 00:22:44;;;;;;;7.50;4.60;;;;;;;;;;4916542;29;20184;-72
2023/08/13 00:25:11;;;;;;;10.20;4.50;;;;;;;;;;4925801;29;20951;-71
2023/08/13 00:27:38;;;;;;;7.70;4.40;;;;;;;;;;4911360;29;20536;-71
2023/08/13 00:30:05;;;;;;;7.07;3.80;;;;;;;;;;4914498;29;20221;-71
2023/08/13 00:32:32;;;;;;;7.27;4.30;;;;;;;;;;4913238;29;21123;-71
2023/08/13 00:34:59;;;;;;;9.57;4.20;;;;;;;;;;4897458;29;20680;-71
2023/08/13 00:37:26;;;;;;;7.07;4.47;;;;;;;;;;4914064;29;20203;-71
2023/08/13 00:39:52;;;;;;;6.20;3.83;;;;;;;;;;4896920;29;20251;-72
2023/08/13 00:42:19;;;;;;;7.77;4.57;;;;;;;;;;4924801;29;20231;-72
2023/08/13 00:44:48;;;;;;;6.80;4.20;;;;;;;;;;4933154;29;20191;-71
2023/08/13 00:47:16;;;;;;;5.27;3.63;;;;;;;;;;4903722;29;20207;-72
2023/08/13 00:49:42;;;;;;;10.53;4.23;;;;;;;;;;4913886;29;21022;-72
2023/08/13 00:52:09;;;;;;;9.70;4.30;;;;;;;;;;4897094;29;20191;-72
2023/08/13 00:54:36;;;;;;;12.23;4.50;;;;;;;;;;4896950;29;20199;-71
2023/08/13 00:57:03;;;;;;;7.07;4.20;;;;;;;;;;4897099;29;20203;-71
2023/08/13 00:59:30;;;;;;;7.20;5.13;;;;;;;;;;4897026;29;20255;-72
2023/08/13 01:01:57;;;;;;;9.70;4.43;;;;;;;;;;4894431;29;20243;-72
2023/08/13 01:04:24;;;;;;;8.93;4.67;;;;;;;;;;4913654;29;20199;-71
2023/08/13 01:06:56;;;;;;;12.80;4.93;;;;;;;;;;4896698;29;20209;-71
2023/08/13 01:09:27;;;;;;;9.13;5.63;;;;;;;;;;4897285;29;20208;-71
2023/08/13 01:44:36;;;;;;;6.13;4.67;;;;;;;;;;4893385;29;20239;-71
2023/08/13 01:47:04;;;;;;;8.03;5.30;;;;;;;;;;4892716;29;20196;-71
2023/08/13 01:49:32;;;;;;;8.43;5.10;;;;;;;;;;4877743;29;20211;-72
2023/08/13 01:51:58;;;;;;;7.77;5.20;;;;;;;;;;4877490;29;20199;-71
2023/08/13 01:54:25;;;;;;;6.20;5.10;;;;;;;;;;4870626;29;20204;-71
2023/08/13 01:56:52;;;;;;;7.80;5.27;;;;;;;;;;4893884;29;20203;-72
2023/08/13 01:59:18;;;;;;;10.03;5.60;;;;;;;;;;4877150;29;20259;-72
2023/08/13 02:01:45;;;;;;;7.03;5.30;;;;;;;;;;4877235;29;20200;-72
2023/08/13 02:04:12;;;;;;;6.40;5.30;;;;;;;;;;4905543;29;20283;-72
2023/08/13 02:06:39;;;;;;;10.80;5.30;;;;;;;;;;4912194;29;20599;-72
2023/08/13 02:09:23;;;;;;;7.33;4.73;;;;;;;;;;4895838;29;20207;-72
2023/08/13 02:11:50;;;;;;;6.53;5.43;;;;;;;;;;4895566;29;20247;-72
2023/08/13 02:14:34;;;;;;;6.07;5.43;;;;;;;;;;4895200;29;20547;-72
2023/08/13 02:17:01;;;;;;;6.10;5.10;;;;;;;;;;4895476;29;20226;-71
2023/08/13 02:19:46;;;;;;;8.73;5.07;;;;;;;;;;4910920;29;20172;-71
2023/08/13 02:22:13;;;;;;;7.83;5.47;;;;;;;;;;4912098;29;20210;-71
2023/08/13 02:24:57;;;;;;;7.83;5.57;;;;;;;;;;4882123;29;20175;-71
2023/08/13 02:27:24;;;;;;;5.63;5.03;;;;;;;;;;4912447;29;20208;-71
2023/08/13 02:30:09;;;;;;;6.33;5.20;;;;;;;;;;4912347;29;20199;-71
2023/08/13 02:32:36;;;;;;;6.67;5.57;;;;;;;;;;4895181;29;20191;-71
2023/08/13 02:35:03;;;;;;;6.23;5.33;;;;;;;;;;4895521;29;20230;-71
2023/08/13 02:37:30;;;;;;;8.87;5.60;;;;;;;;;;4893730;29;20230;-71
2023/08/13 02:39:57;;;;;;;5.77;5.10;;;;;;;;;;4912066;29;20195;-72
2023/08/13 02:42:42;;;;;;;7.70;5.10;;;;;;;;;;4909357;29;20194;-72
2023/08/13 02:45:09;;;;;;;6.27;4.97;;;;;;;;;;4931347;29;20768;-72
2023/08/13 02:47:35;;;;;;;6.43;5.20;;;;;;;;;;4913485;29;20254;-71
2023/08/13 02:50:02;;;;;;;7.53;5.57;;;;;;;;;;4930909;29;20211;-72
2023/08/13 02:52:29;;;;;;;8.80;5.80;;;;;;;;;;4930789;29;20547;-72
2023/08/13 02:54:56;;;;;;;10.23;5.37;;;;;;;;;;4901218;29;20282;-72
2023/08/13 02:57:23;;;;;;;9.23;5.50;;;;;;;;;;4894983;29;20214;-72
2023/08/13 02:59:50;;;;;;;7.13;5.30;;;;;;;;;;4911608;29;20214;-72
2023/08/13 03:02:16;;;;;;;8.70;5.13;;;;;;;;;;4892464;29;20199;-72
2023/08/13 03:04:43;;;;;;;9.40;5.80;;;;;;;;;;4930718;29;20171;-71
2023/08/13 03:07:10;;;;;;;7.10;5.70;;;;;;;;;;4930746;29;20183;-72
2023/08/13 03:09:55;;;;;;;9.60;6.40;;;;;;;;;;4913238;29;20269;-72
2023/08/13 03:12:21;;;;;;;10.97;6.17;;;;;;;;;;4905643;29;20316;-72
2023/08/13 03:14:48;;;;;;;9.63;6.07;;;;;;;;;;4911749;29;20179;-72
2023/08/13 03:17:15;;;;;;;9.10;5.90;;;;;;;;;;4893763;29;20258;-72
2023/08/13 03:19:43;;;;;;;8.23;5.90;;;;;;;;;;4864388;29;20294;-71
2023/08/13 03:22:10;;;;;;;10.20;6.27;;;;;;;;;;4911679;29;20172;-72
2023/08/13 03:24:37;;;;;;;6.10;5.30;;;;;;;;;;4912556;29;20196;-72
2023/08/13 03:27:04;;;;;;;8.53;6.03;;;;;;;;;;4915815;29;20235;-72
2023/08/13 03:29:48;;;;;;;9.77;6.30;;;;;;;;;;4885490;29;20214;-72
2023/08/13 03:32:15;;;;;;;8.13;5.57;;;;;;;;;;4921979;29;20210;-72
2023/08/13 03:34:42;;;;;;;9.60;5.90;;;;;;;;;;4934600;29;20210;-72
2023/08/13 03:37:09;;;;;;;9.63;6.00;;;;;;;;;;4934350;29;20203;-72
2023/08/13 03:39:36;;;;;;;8.93;6.20;;;;;;;;;;4934341;29;20187;-72
2023/08/13 03:42:03;;;;;;;7.93;6.37;;;;;;;;;;4907860;29;20278;-72
2023/08/13 03:44:29;;;;;;;9.30;6.10;;;;;;;;;;4915594;29;20183;-72
2023/08/13 03:46:56;;;;;;;7.50;5.60;;;;;;;;;;4898126;29;20213;-71
2023/08/13 03:49:23;;;;;;;7.80;6.13;;;;;;;;;;4898583;29;20263;-71
2023/08/13 03:51:49;;;;;;;8.57;6.00;;;;;;;;;;4896933;29;21014;-72
2023/08/13 03:54:16;;;;;;;9.30;5.53;;;;;;;;;;4881663;29;20195;-72
2023/08/13 03:56:43;;;;;;;8.07;6.17;;;;;;;;;;4897694;29;20204;-72
2023/08/13 03:59:10;;;;;;;10.50;6.57;;;;;;;;;;4894966;29;20229;-72
2023/08/13 04:01:38;;;;;;;7.70;6.10;;;;;;;;;;4921994;29;20199;-72
2023/08/13 04:04:05;;;;;;;6.83;5.97;;;;;;;;;;4914847;29;20176;-71
2023/08/13 04:06:32;;;;;;;8.13;6.30;;;;;;;;;;4914657;29;21015;-72
2023/08/13 04:08:59;;;;;;;7.63;6.00;;;;;;;;;;4898356;29;20726;-71
2023/08/13 04:11:43;;;;;;;7.30;6.00;;;;;;;;;;4898777;29;20227;-71
2023/08/13 04:14:10;;;;;;;8.47;6.60;;;;;;;;;;4928674;29;20194;-71
2023/08/13 04:16:37;;;;;;;8.40;6.33;;;;;;;;;;4882309;29;20278;-71
2023/08/13 04:19:04;;;;;;;14.13;7.27;;;;;;;;;;4914381;29;20199;-71
2023/08/13 04:21:31;;;;;;;13.93;6.90;;;;;;;;;;4914899;29;20564;-71
2023/08/13 04:23:58;;;;;;;10.40;6.40;;;;;;;;;;4898200;29;20291;-71
2023/08/13 04:26:25;;;;;;;9.50;6.60;;;;;;;;;;4897856;29;20203;-71
2023/08/13 04:28:54;;;;;;;7.47;5.67;;;;;;;;;;4902654;29;20689;-72
2023/08/13 04:31:39;;;;;;;8.83;7.00;;;;;;;;;;4898515;29;20230;-71
2023/08/13 04:34:07;;;;;;;8.27;6.27;;;;;;;;;;4916243;29;20206;-71
2023/08/13 04:36:36;;;;;;;7.90;6.27;;;;;;;;;;4911517;29;20278;-71
2023/08/13 04:39:07;;;;;;;9.23;6.50;;;;;;;;;;4897650;29;20258;-71
2023/08/13 04:41:35;;;;;;;10.40;6.20;;;;;;;;;;4896831;29;20198;-72
2023/08/13 04:44:01;;;;;;;8.60;7.17;;;;;;;;;;4893792;29;20207;-71
2023/08/13 04:46:28;;;;;;;9.17;6.43;;;;;;;;;;4897672;29;20570;-71
2023/08/13 04:48:57;;;;;;;10.10;6.37;;;;;;;;;;4897144;29;20734;-71
2023/08/13 04:51:29;;;;;;;11.70;6.50;;;;;;;;;;4916395;29;20232;-71
2023/08/13 04:53:56;;;;;;;11.53;6.70;;;;;;;;;;4916363;29;20274;-71
2023/08/13 04:56:25;;;;;;;10.23;6.23;;;;;;;;;;4916109;29;20195;-71
2023/08/13 04:58:53;;;;;;;7.60;6.07;;;;;;;;;;4915634;29;20206;-71
2023/08/13 05:01:19;;;;;;;7.70;5.87;;;;;;;;;;4916278;29;20187;-71
2023/08/13 05:03:51;;;;;;;8.13;5.80;;;;;;;;;;4915857;29;20911;-71
2023/08/13 05:06:18;;;;;;;9.83;6.13;;;;;;;;;;4904966;29;20195;-71
2023/08/13 05:09:03;;;;;;;9.23;6.10;;;;;;;;;;4915978;29;20805;-71
2023/08/13 05:11:30;;;;;;;8.37;6.00;;;;;;;;;;4900182;29;20222;-71
2023/08/13 05:13:58;;;;;;;7.17;6.10;;;;;;;;;;4915869;29;20685;-71
2023/08/13 05:16:24;;;;;;;8.40;5.97;;;;;;;;;;4915597;29;20246;-71
2023/08/13 05:18:52;;;;;;;10.80;6.27;;;;;;;;;;4915290;29;20207;-71
2023/08/13 05:21:36;;;;;;;8.23;6.07;;;;;;;;;;4915281;29;20167;-71
2023/08/13 05:24:03;;;;;;;8.17;5.83;;;;;;;;;;4900558;29;20195;-71
2023/08/13 05:26:47;;;;;;;7.00;6.30;;;;;;;;;;4919980;29;20195;-71
2023/08/13 05:29:16;;;;;;;6.77;6.17;;;;;;;;;;4880835;29;20203;-71
2023/08/13 05:31:43;;;;;;;9.23;6.63;;;;;;;;;;4913528;29;20322;-71
2023/08/13 05:34:10;;;;;;;7.70;6.90;;;;;;;;;;4896744;29;20196;-71
2023/08/13 05:36:37;;;;;;;6.90;5.97;;;;;;;;;;4916975;29;20190;-71
2023/08/13 05:39:07;;;;;;;7.50;6.80;;;;;;;;;;4897990;29;20282;-71
2023/08/13 05:41:34;;;;;;;7.57;6.30;;;;;;;;;;4893342;29;20203;-75
2023/08/13 05:44:01;;;;;;;7.23;6.53;;;;;;;;;;4903585;29;20291;-73
2023/08/13 05:46:29;;;;;;;7.63;6.80;;;;;;;;;;4896437;29;20318;-72
2023/08/13 05:48:56;;;;;;;7.67;6.73;;;;;;;;;;4911816;29;20195;-73
2023/08/13 05:51:23;;;;;;;8.63;6.67;;;;;;;;;;4877517;29;20231;-73
2023/08/13 05:54:08;;;;;;;7.63;6.83;;;;;;;;;;4898695;29;20712;-74
2023/08/13 05:56:37;;;;;;;7.67;6.73;;;;;;;;;;4886716;29;20210;-74
2023/08/13 05:59:04;;;;;;;8.50;6.70;;;;;;;;;;4904350;29;20207;-74
2023/08/13 06:01:34;;;;;;;7.50;6.70;;;;;;;;;;4914180;29;20233;-73
2023/08/13 06:04:01;;;;;;;7.27;6.30;;;;;;;;;;4909681;29;20556;-74
2023/08/13 06:06:46;;;;;;;6.27;5.33;;;;;;;;;;4895094;29;20179;-73
2023/08/13 06:09:13;;;;;;;6.00;5.33;;;;;;;;;;4907499;29;20270;-74
2023/08/13 06:11:41;;;;;;;5.53;4.90;;;;;;;;;;4893976;29;20235;-73
2023/08/13 06:14:07;;;;;;;7.07;5.10;;;;;;;;;;4910128;29;20311;-74
2023/08/13 06:16:34;;;;;;;5.80;4.50;;;;;;;;;;4896830;29;20195;-72
2023/08/13 06:19:01;;;;;;;5.03;4.53;;;;;;;;;;4906543;29;20278;-73
2023/08/13 06:21:28;;;;;;;4.47;4.07;;;;;;;;;;4908843;29;20207;-71
2023/08/13 06:23:55;;;;;;;4.83;4.20;;;;;;;;;;4910606;29;20243;-76
2023/08/13 06:26:22;;;;;;;4.90;4.40;;;;;;;;;;4905784;29;20221;-73
2023/08/13 06:28:49;;;;;;;4.23;3.83;;;;;;;;;;4909786;29;20197;-72
2023/08/13 06:31:15;;;;;;;4.00;3.70;;;;;;;;;;4907625;29;20223;-73
2023/08/13 06:34:03;;;;;;;4.40;4.00;;;;;;;;;;4924768;29;20198;-74
2023/08/13 06:36:29;;;;;;;3.90;3.50;;;;;;;;;;4893747;29;20188;-74
2023/08/13 06:38:57;;;;;;;6.83;3.93;;;;;;;;;;4893414;29;20624;-74
2023/08/13 06:41:25;;;;;;;4.17;3.63;;;;;;;;;;4879147;29;20195;-73
2023/08/13 06:43:52;;;;;;;4.20;3.80;;;;;;;;;;4897363;29;20230;-73
2023/08/13 06:46:19;;;;;;;5.27;3.90;;;;;;;;;;4910754;29;20648;-72
2023/08/13 06:48:46;;;;;;;4.07;3.67;;;;;;;;;;4926067;29;20194;-73
2023/08/13 06:51:30;;;;;;;4.17;3.77;;;;;;;;;;4916546;29;20200;-75
2023/08/13 06:53:59;;;;;;;3.90;3.60;;;;;;;;;;4893826;29;20203;-72
2023/08/13 06:56:25;;;;;;;3.73;3.40;;;;;;;;;;4902309;29;20192;-74
2023/08/13 06:58:52;;;;;;;3.87;3.57;;;;;;;;;;4909827;29;20282;-74
2023/08/13 07:01:20;;;;;;;3.60;3.30;;;;;;;;;;4884449;29;20196;-72
2023/08/13 07:03:47;;;;;;;5.73;3.37;;;;;;;;;;4919409;29;20201;-72
2023/08/13 07:06:14;;;;;;;3.70;3.40;;;;;;;;;;4892017;29;20694;-72
2023/08/13 07:08:58;;;;;;;3.33;3.03;;;;;;;;;;4899065;29;20222;-72
2023/08/13 07:11:25;;;;;;;3.30;2.80;;;;;;;;;;4904458;29;20246;-72
2023/08/13 07:13:52;;;;;;;2.73;2.50;;;;;;;;;;4889757;29;20979;-72
2023/08/13 07:16:19;;;;;;;2.60;2.40;;;;;;;;;;4890493;29;20252;-72
2023/08/13 07:18:46;;;;;;;3.40;2.47;;;;;;;;;;4900059;29;20200;-73
2023/08/13 07:21:12;;;;;;;2.60;2.40;;;;;;;;;;4910368;29;20250;-72
2023/08/13 07:23:39;;;;;;;2.53;2.33;;;;;;;;;;4877915;29;20207;-72
2023/08/13 07:26:06;;;;;;;2.70;2.40;;;;;;;;;;4893217;29;20179;-72
2023/08/13 07:28:51;;;;;;;2.70;2.50;;;;;;;;;;4909804;29;20183;-72
2023/08/13 07:31:19;;;;;;;4.33;2.60;;;;;;;;;;4891398;29;20683;-72
2023/08/13 07:33:46;;;;;;;5.50;2.77;;;;;;;;;;4888691;29;20251;-73
2023/08/13 07:36:13;;;;;;;3.57;2.80;;;;;;;;;;4872199;29;20195;-72
2023/08/13 07:38:39;;;;;;;2.83;2.50;;;;;;;;;;4905079;29;20262;-72
2023/08/13 07:41:06;;;;;;;5.07;2.80;;;;;;;;;;4899866;29;20219;-72
2023/08/13 07:43:34;;;;;;;2.87;2.67;;;;;;;;;;4907541;29;20199;-72
2023/08/13 07:46:00;;;;;;;2.97;2.50;;;;;;;;;;4908092;29;20249;-72
2023/08/13 07:48:27;;;;;;;5.63;4.10;;;;;;;;;;4903479;29;20266;-73
2023/08/13 07:50:55;;;;;;;2.57;2.30;;;;;;;;;;4901443;29;20679;-72
2023/08/13 07:53:22;;;;;;;2.27;2.07;;;;;;;;;;4891150;29;20310;-71
2023/08/13 07:55:49;;;;;;;2.33;2.13;;;;;;;;;;4909280;29;20195;-72
2023/08/13 07:58:16;;;;;;;3.07;2.23;;;;;;;;;;4890119;29;20202;-71
2023/08/13 08:00:43;;;;;;;2.83;2.60;;;;;;;;;;4907592;29;20890;-71
2023/08/13 08:03:09;;;;;;;2.90;2.70;;;;;;;;;;4879879;29;20691;-72
2023/08/13 08:05:37;;;;;;;2.63;2.40;;;;;;;;;;4912402;29;20204;-71
2023/08/13 08:08:05;;;;;;;2.80;2.60;;;;;;;;;;4894109;29;20192;-72
2023/08/13 08:10:49;;;;;;;4.33;2.93;;;;;;;;;;4895318;29;20703;-71
2023/08/13 08:13:16;;;;;;;5.30;3.20;;;;;;;;;;4911553;29;20187;-72
2023/08/13 08:15:43;;;;;;;2.40;2.20;;;;;;;;;;4898440;29;20202;-72
2023/08/13 08:18:11;;;;;;;3.50;2.90;;;;;;;;;;4869813;29;20862;-72
2023/08/13 08:20:38;;;;;;;2.60;2.40;;;;;;;;;;4902094;29;20208;-72
2023/08/13 08:23:22;;;;;;;3.17;2.50;;;;;;;;;;4907646;29;20171;-72
2023/08/13 08:25:49;;;;;;;3.20;2.33;;;;;;;;;;4891544;29;20571;-73
2023/08/13 08:28:33;;;;;;;3.00;2.47;;;;;;;;;;4911224;29;20187;-74
2023/08/13 08:31:03;;;;;;;2.47;2.27;;;;;;;;;;4905923;29;20683;-71
2023/08/13 08:33:30;;;;;;;3.57;2.77;;;;;;;;;;4898326;29;20552;-71
2023/08/13 08:36:00;;;;;;;5.00;2.53;;;;;;;;;;4896277;29;20215;-72
2023/08/13 08:38:27;;;;;;;3.20;2.90;;;;;;;;;;4918980;29;20195;-71
2023/08/13 08:41:12;;;;;;;10.20;3.70;;;;;;;;;;4914041;29;20198;-72
2023/08/13 08:43:39;;;;;;;3.00;2.80;;;;;;;;;;4895846;29;20208;-72
2023/08/13 08:46:06;;;;;;;4.00;3.00;;;;;;;;;;4896871;29;20566;-72
2023/08/13 08:48:33;;;;;;;7.97;3.07;;;;;;;;;;4896967;29;20559;-73
2023/08/13 08:51:00;;;;;;;5.07;2.90;;;;;;;;;;4895226;29;20222;-73
2023/08/13 08:53:27;;;;;;;2.97;2.50;;;;;;;;;;4896799;29;20202;-72
2023/08/13 08:55:54;;;;;;;3.93;2.80;;;;;;;;;;4895825;29;20204;-72
2023/08/13 08:58:22;;;;;;;2.90;2.60;;;;;;;;;;4897148;29;20198;-71
2023/08/13 09:00:49;;;;;;;3.07;2.43;;;;;;;;;;4910864;29;20254;-69
2023/08/13 09:03:16;;;;;;;2.70;2.50;;;;;;;;;;4909764;29;20250;-67
2023/08/13 09:05:44;;;;;;;2.90;2.60;;;;;;;;;;4895021;29;20215;-68
2023/08/13 09:08:28;;;;;;;2.77;2.50;;;;;;;;;;4911502;29;20271;-71
2023/08/13 09:10:55;;;;;;;2.50;2.30;;;;;;;;;;4910227;29;20314;-73
2023/08/13 09:13:22;;;;;;;2.30;2.10;;;;;;;;;;4912023;29;20199;-71
2023/08/13 09:15:49;;;;;;;2.40;2.20;;;;;;;;;;4901535;29;20191;-72
2023/08/13 09:18:17;;;;;;;2.40;2.20;;;;;;;;;;4895481;29;20203;-71
2023/08/13 09:20:44;;;;;;;3.10;2.33;;;;;;;;;;4898243;29;20239;-72
2023/08/13 09:23:21;;;;;;;2.80;2.60;;;;;;;;;;4907236;29;20203;-71
2023/08/13 09:25:54;;;;;;;2.87;2.57;;;;;;;;;;4911222;29;20192;-72
2023/08/13 09:28:21;;;;;;;2.73;2.50;;;;;;;;;;4892430;29;20254;-71
2023/08/13 09:30:48;;;;;;;2.37;2.17;;;;;;;;;;4878717;29;20223;-71
2023/08/13 09:33:15;;;;;;;3.87;2.70;;;;;;;;;;4896425;29;20198;-72
2023/08/13 09:35:42;;;;;;;4.87;2.70;;;;;;;;;;4913370;29;20302;-71
2023/08/13 09:38:09;;;;;;;4.83;2.70;;;;;;;;;;4878540;29;20184;-71
2023/08/13 09:40:36;;;;;;;4.70;2.57;;;;;;;;;;4910787;29;20207;-72
2023/08/13 09:43:06;;;;;;;2.87;2.30;;;;;;;;;;4912238;29;20204;-72
2023/08/13 09:45:33;;;;;;;3.90;2.43;;;;;;;;;;4919994;29;20669;-72
2023/08/13 09:48:02;;;;;;;4.20;2.30;;;;;;;;;;4894859;29;20202;-71
2023/08/13 09:50:37;;;;;;;2.70;2.30;;;;;;;;;;4896273;29;20674;-71
2023/08/13 09:53:05;;;;;;;3.80;2.47;;;;;;;;;;4875421;29;20297;-71
2023/08/13 09:55:32;;;;;;;2.87;2.50;;;;;;;;;;4895694;29;20306;-71
2023/08/13 09:58:00;;;;;;;3.37;2.37;;;;;;;;;;4894674;29;20226;-71
2023/08/13 10:00:27;;;;;;;2.67;2.40;;;;;;;;;;4896370;29;20202;-71
2023/08/13 10:02:54;;;;;;;3.33;2.30;;;;;;;;;;4893831;29;20191;-71
2023/08/13 10:05:21;;;;;;;2.87;2.23;;;;;;;;;;4912830;29;20206;-71
2023/08/13 10:07:48;;;;;;;5.73;2.60;;;;;;;;;;4896365;29;20199;-71
2023/08/13 10:10:15;;;;;;;2.50;2.30;;;;;;;;;;4912110;29;20224;-72
2023/08/13 10:12:42;;;;;;;2.37;2.17;;;;;;;;;;4894318;29;20227;-71
2023/08/13 10:15:09;;;;;;;3.60;3.00;;;;;;;;;;4894742;29;20204;-71
2023/08/13 10:17:35;;;;;;;4.50;2.50;;;;;;;;;;4912186;29;20199;-71
2023/08/13 10:20:03;;;;;;;4.63;3.23;;;;;;;;;;4896840;29;20198;-72
2023/08/13 10:22:30;;;;;;;3.10;2.80;;;;;;;;;;4896355;29;20196;-72
2023/08/13 10:24:58;;;;;;;4.40;2.50;;;;;;;;;;4911689;29;20278;-73
2023/08/13 10:27:25;;;;;;;5.50;2.67;;;;;;;;;;4912809;29;20659;-73
2023/08/13 10:30:02;;;;;;;2.63;2.43;;;;;;;;;;4912284;29;20251;-74
2023/08/13 10:32:30;;;;;;;2.10;1.90;;;;;;;;;;4895659;29;20230;-72
2023/08/13 10:34:57;;;;;;;2.70;1.63;;;;;;;;;;4892596;29;20191;-70
2023/08/13 10:37:24;;;;;;;2.30;2.00;;;;;;;;;;4912941;29;20214;-71
2023/08/13 10:39:57;;;;;;;1.87;1.77;;;;;;;;;;4920596;29;20200;-70
2023/08/13 10:42:34;;;;;;;2.20;1.80;;;;;;;;;;4923827;29;20210;-69
2023/08/13 10:45:04;;;;;;;3.30;1.57;;;;;;;;;;4933538;29;20288;-70
2023/08/13 10:47:38;;;;;;;3.27;1.73;;;;;;;;;;4916023;29;20909;-70
2023/08/13 10:50:06;;;;;;;2.00;1.80;;;;;;;;;;4909563;29;20298;-70
2023/08/13 10:52:33;;;;;;;1.80;1.63;;;;;;;;;;4894782;29;20324;-70
2023/08/13 10:55:00;;;;;;;3.50;1.60;;;;;;;;;;4879710;29;20204;-70
2023/08/13 10:57:27;;;;;;;1.30;1.20;;;;;;;;;;4895065;29;20187;-70
2023/08/13 10:59:54;;;;;;;1.63;1.23;;;;;;;;;;4894881;29;20199;-70
2023/08/13 11:02:21;;;;;;;1.40;1.20;;;;;;;;;;4894846;29;20198;-70
2023/08/13 11:04:49;;;;;;;2.50;1.30;;;;;;;;;;4895643;29;20243;-70
2023/08/13 11:07:34;;;;;;;1.60;1.50;;;;;;;;;;4897234;29;20179;-70
2023/08/13 11:10:01;;;;;;;1.60;1.30;;;;;;;;;;4907179;29;20842;-70
2023/08/13 11:12:46;;;;;;;2.90;1.57;;;;;;;;;;4915901;29;20194;-70
2023/08/13 11:15:13;;;;;;;2.10;1.70;;;;;;;;;;4914165;29;20175;-69
2023/08/13 11:17:41;;;;;;;2.20;2.00;;;;;;;;;;4930470;29;20194;-69
2023/08/13 11:20:09;;;;;;;1.70;1.60;;;;;;;;;;4913437;29;20206;-70
2023/08/13 11:22:36;;;;;;;3.37;2.50;;;;;;;;;;4930376;29;20242;-70
2023/08/13 11:25:20;;;;;;;1.50;1.40;;;;;;;;;;4927722;29;20175;-70
2023/08/13 11:27:48;;;;;;;1.97;1.60;;;;;;;;;;4913429;29;20190;-70
2023/08/13 11:30:33;;;;;;;2.37;1.40;;;;;;;;;;4911434;29;20341;-71
2023/08/13 11:32:59;;;;;;;1.97;1.40;;;;;;;;;;4894892;29;20764;-70
2023/08/13 11:35:26;;;;;;;1.43;1.33;;;;;;;;;;4894755;29;20204;-71
2023/08/13 11:37:53;;;;;;;1.70;1.30;;;;;;;;;;4894586;29;20205;-70
2023/08/13 11:40:20;;;;;;;2.00;1.13;;;;;;;;;;4879564;29;20204;-70
2023/08/13 11:42:51;;;;;;;2.00;1.23;;;;;;;;;;4893341;29;20224;-70
2023/08/13 11:45:18;;;;;;;1.83;1.30;;;;;;;;;;4915383;29;20198;-70
2023/08/13 11:47:45;;;;;;;3.40;1.57;;;;;;;;;;4933910;29;20200;-70
2023/08/13 11:50:29;;;;;;;1.60;1.50;;;;;;;;;;4934267;29;20173;-70
2023/08/13 11:53:05;;;;;;;1.63;1.50;;;;;;;;;;4917016;29;20697;-70
2023/08/13 11:55:32;;;;;;;1.40;1.30;;;;;;;;;;4934011;29;20301;-70
2023/08/13 11:57:59;;;;;;;2.03;1.43;;;;;;;;;;4901386;29;20249;-70
2023/08/13 12:00:26;;;;;;;2.73;1.70;;;;;;;;;;4934167;29;20195;-70
2023/08/13 12:02:56;;;;;;;2.10;1.40;;;;;;;;;;4916516;29;20202;-70
2023/08/13 12:05:27;;;;;;;2.13;1.50;;;;;;;;;;4901337;29;20194;-70
2023/08/13 12:08:00;;;;;;;1.60;1.33;;;;;;;;;;4915283;29;20262;-70
2023/08/13 12:10:31;;;;;;;3.00;1.50;;;;;;;;;;4898227;29;20227;-69
2023/08/13 12:12:58;;;;;;;3.10;2.03;;;;;;;;;;4914960;29;20220;-69
2023/08/13 12:15:25;;;;;;;1.60;1.30;;;;;;;;;;4898248;29;20199;-70
2023/08/13 12:17:52;;;;;;;1.53;1.40;;;;;;;;;;4896885;29;20263;-71
2023/08/13 12:20:20;;;;;;;1.80;1.40;;;;;;;;;;4879298;29;20240;-70
2023/08/13 12:22:46;;;;;;;1.20;1.00;;;;;;;;;;4894832;29;20184;-70
2023/08/13 12:25:16;;;;;;;3.70;1.30;;;;;;;;;;4894497;29;20211;-71
2023/08/13 12:27:43;;;;;;;2.63;1.50;;;;;;;;;;4895654;29;20198;-72
2023/08/13 12:30:10;;;;;;;19.47;6.30;;;;;;;;;;4896217;29;20185;-71
2023/08/13 12:32:38;;;;;;;9.40;2.83;;;;;;;;;;4885109;29;20583;-71
2023/08/13 12:35:05;;;;;;;10.00;2.10;;;;;;;;;;4897542;29;20286;-72
2023/08/13 12:37:32;;;;;;;1.50;1.20;;;;;;;;;;4914150;29;20188;-71
2023/08/13 12:39:59;;;;;;;3.37;1.70;;;;;;;;;;4914505;29;20263;-72
2023/08/13 12:42:43;;;;;;;3.77;2.60;;;;;;;;;;4897064;29;20179;-71
2023/08/13 12:45:10;;;;;;;3.70;2.23;;;;;;;;;;4898548;29;20180;-71
2023/08/13 12:47:54;;;;;;;4.60;3.23;;;;;;;;;;4889313;29;20605;-71
2023/08/13 12:50:21;;;;;;;2.70;1.80;;;;;;;;;;4915090;29;20227;-70
2023/08/13 12:53:06;;;;;;;2.50;1.67;;;;;;;;;;4916437;29;20247;-71
2023/08/13 12:55:33;;;;;;;1.90;1.40;;;;;;;;;;4916453;29;20266;-71
2023/08/13 12:58:17;;;;;;;1.70;1.40;;;;;;;;;;4916454;29;20179;-70
2023/08/13 13:00:44;;;;;;;1.47;1.20;;;;;;;;;;4915857;29;20199;-71
2023/08/13 13:03:28;;;;;;;1.80;1.60;;;;;;;;;;4899333;29;20171;-71
2023/08/13 13:05:55;;;;;;;2.17;1.40;;;;;;;;;;4916479;29;20243;-70
2023/08/13 13:08:22;;;;;;;2.73;1.73;;;;;;;;;;4897995;29;21019;-71
2023/08/13 13:10:52;;;;;;;2.10;1.20;;;;;;;;;;4899305;29;20236;-71
2023/08/13 13:13:19;;;;;;;1.83;1.23;;;;;;;;;;4915887;29;20563;-73
2023/08/13 13:15:46;;;;;;;2.20;1.90;;;;;;;;;;4897712;29;20188;-71
2023/08/13 13:18:13;;;;;;;3.67;2.00;;;;;;;;;;4890523;29;20207;-71
2023/08/13 13:20:39;;;;;;;3.87;2.63;;;;;;;;;;4914543;29;20284;-72
2023/08/13 13:23:24;;;;;;;2.27;1.80;;;;;;;;;;4912766;29;20184;-70
2023/08/13 13:25:51;;;;;;;3.63;1.77;;;;;;;;;;4896029;29;20191;-74
2023/08/13 13:28:18;;;;;;;2.10;1.73;;;;;;;;;;4886099;29;20191;-72
2023/08/13 13:30:45;;;;;;;2.90;1.60;;;;;;;;;;4894521;29;20244;-72
2023/08/13 13:33:12;;;;;;;2.47;1.57;;;;;;;;;;4908336;29;20236;-72
2023/08/13 13:35:56;;;;;;;2.60;1.17;;;;;;;;;;4911593;29;20171;-71
2023/08/13 13:38:23;;;;;;;2.20;1.53;;;;;;;;;;4894988;29;20279;-72
2023/08/13 13:40:50;;;;;;;2.93;2.13;;;;;;;;;;4911501;29;20993;-72
2023/08/13 13:43:17;;;;;;;1.97;1.60;;;;;;;;;;4905436;29;20252;-72
2023/08/13 13:45:44;;;;;;;2.13;1.13;;;;;;;;;;4879056;29;20196;-71
2023/08/13 13:48:11;;;;;;;2.50;1.47;;;;;;;;;;4873582;29;21074;-71
2023/08/13 13:50:38;;;;;;;3.23;1.20;;;;;;;;;;4907666;29;20212;-71
2023/08/13 13:53:05;;;;;;;2.20;1.13;;;;;;;;;;4891810;29;20227;-71
2023/08/13 13:55:49;;;;;;;1.57;1.30;;;;;;;;;;4929351;29;20666;-71
2023/08/13 13:58:16;;;;;;;3.00;1.30;;;;;;;;;;4927897;29;20250;-72
2023/08/13 14:00:44;;;;;;;4.53;1.40;;;;;;;;;;4912982;29;20566;-71
2023/08/13 14:03:11;;;;;;;1.97;1.07;;;;;;;;;;4907195;29;20987;-71
2023/08/13 14:05:38;;;;;;;2.23;1.67;;;;;;;;;;4923212;29;20222;-72
2023/08/13 14:08:05;;;;;;;2.50;1.70;;;;;;;;;;4898633;29;20203;-71
2023/08/13 14:10:32;;;;;;;3.77;1.53;;;;;;;;;;4919240;29;20226;-71
2023/08/13 14:12:59;;;;;;;3.03;1.50;;;;;;;;;;4923392;29;20211;-73
2023/08/13 14:15:27;;;;;;;2.47;1.30;;;;;;;;;;4890948;29;20203;-72
2023/08/13 14:17:54;;;;;;;2.53;1.70;;;;;;;;;;4913649;29;20186;-72
2023/08/13 14:20:20;;;;;;;3.37;1.30;;;;;;;;;;4912127;29;20189;-72
2023/08/13 14:22:47;;;;;;;2.47;1.50;;;;;;;;;;4926270;29;20965;-72
2023/08/13 14:25:14;;;;;;;3.73;1.50;;;;;;;;;;4920100;29;20203;-72
2023/08/13 14:27:41;;;;;;;2.97;1.40;;;;;;;;;;4910411;29;20193;-73
2023/08/13 14:30:08;;;;;;;2.87;1.33;;;;;;;;;;4909994;29;20235;-73
2023/08/13 14:32:35;;;;;;;4.10;1.50;;;;;;;;;;4909935;29;20691;-73
2023/08/13 14:35:02;;;;;;;3.93;1.80;;;;;;;;;;4909249;29;20206;-72
2023/08/13 14:37:29;;;;;;;4.07;1.53;;;;;;;;;;4914224;29;20195;-73
2023/08/13 14:39:56;;;;;;;3.73;1.47;;;;;;;;;;4921907;29;20211;-73
2023/08/13 14:42:23;;;;;;;5.00;1.40;;;;;;;;;;4910682;29;20664;-72
2023/08/13 14:44:50;;;;;;;3.73;1.53;;;;;;;;;;4905007;29;20206;-73
2023/08/13 14:47:17;;;;;;;3.33;1.40;;;;;;;;;;4911777;29;20202;-73
2023/08/13 14:49:46;;;;;;;8.37;1.80;;;;;;;;;;4890296;29;20660;-72
2023/08/13 14:52:13;;;;;;;5.37;2.83;;;;;;;;;;4928162;29;20540;-73
2023/08/13 14:54:41;;;;;;;4.90;1.70;;;;;;;;;;4923012;29;20797;-75
2023/08/13 14:57:08;;;;;;;6.30;2.20;;;;;;;;;;4896154;29;20187;-72
2023/08/13 14:59:52;;;;;;;4.13;1.50;;;;;;;;;;4907062;29;20205;-73
2023/08/13 15:02:20;;;;;;;5.17;1.87;;;;;;;;;;4900560;29;20219;-71
2023/08/13 15:04:47;;;;;;;3.73;1.70;;;;;;;;;;4890195;29;20231;-71
2023/08/13 15:07:14;;;;;;;3.53;1.23;;;;;;;;;;4910438;29;20714;-71
2023/08/13 15:09:41;;;;;;;3.27;1.30;;;;;;;;;;4925266;29;20266;-70
2023/08/13 15:12:08;;;;;;;3.87;1.20;;;;;;;;;;4928733;29;20833;-70
2023/08/13 15:14:38;;;;;;;3.87;1.40;;;;;;;;;;4926869;29;20550;-71
2023/08/13 15:17:04;;;;;;;4.43;1.50;;;;;;;;;;4928133;29;20195;-70
2023/08/13 15:19:32;;;;;;;5.00;2.67;;;;;;;;;;4893567;29;20246;-74
2023/08/13 15:21:58;;;;;;;5.03;2.10;;;;;;;;;;4907603;29;20286;-73
2023/08/13 15:24:25;;;;;;;4.67;1.70;;;;;;;;;;4906479;29;20778;-70
2023/08/13 15:26:52;;;;;;;6.30;1.90;;;;;;;;;;4879110;29;20284;-70